This is the latest recevied weather packets stored in our database for station/object W4SMH. If no packets are shown the sender has not sent any weather packets the latest 10 day(s).
| Time | Temp. | Humidity | Pressure | Rain* | Wind** | Luminosity | Snow |
|---|---|---|---|---|---|---|---|
| 1777373190 | 10.56° C | 84% | 1004.6 hPa | 0 mm | - | 0 W/m² | - |
| 1777373163 | 10.56° C | 84% | 1004.6 hPa | 0 mm | - | 0 W/m² | - |
| 1777373107 | 10.56° C | 84% | 1004.4 hPa | 0 mm | - | 0 W/m² | - |
| 1777373076 | 10.56° C | 84% | 1004.5 hPa | 0 mm | - | 0 W/m² | - |
| 1777372218 | 10.56° C | 84% | 1004.2 hPa | 0 mm | - | 0 W/m² | - |
| 1777371021 | 10.56° C | 84% | 1003.9 hPa | 0 mm | - | 0 W/m² | - |
| 1777370995 | 10.56° C | 85% | 1003.8 hPa | 0 mm | - | 0 W/m² | - |
| 1777370968 | 10.56° C | 84% | 1003.9 hPa | 0 mm | - | 0 W/m² | - |
| 1777370719 | 10.56° C | 84% | 1003.8 hPa | 0 mm | - | 0 W/m² | - |
| 1777370240 | 10.56° C | 84% | 1003.8 hPa | 0 mm | - | 0 W/m² | - |
| 1777370206 | 10.56° C | 84% | 1003.8 hPa | 0 mm | - | 0 W/m² | - |
| 1777369655 | 10.56° C | 84% | 1003.8 hPa | 0 mm | - | 0 W/m² | - |
| 1777369562 | 10.56° C | 84% | 1003.8 hPa | 0 mm | - | 0 W/m² | - |
| 1777369291 | 10.56° C | 84% | 1003.7 hPa | 0 mm | - | 0 W/m² | - |
| 1777368853 | 11.11° C | 84% | 1003.6 hPa | 0 mm | - | 0 W/m² | - |
| 1777368289 | 11.11° C | 84% | 1003.6 hPa | 0 mm | - | 0 W/m² | - |
| 1777368082 | 11.11° C | 84% | 1003.6 hPa | 0 mm | - | 0 W/m² | - |
| 1777367155 | 6.11° C | 88% | 1015.1 hPa | 0 mm | - | 0 W/m² | - |
| 1777367143 | 6.11° C | 88% | 1015 hPa | 0 mm | - | 0 W/m² | - |
| 1777367116 | 5.56° C | 87% | 1015.1 hPa | 0 mm | - | 0 W/m² | - |
| 1777367086 | 11.11° C | 85% | 1003.5 hPa | 0 mm | - | 0 W/m² | - |
| 1777367020 | 11.11° C | 85% | 1003.5 hPa | 0 mm | - | 0 W/m² | - |
| 1777366992 | 11.11° C | 84% | 1003.6 hPa | 0 mm | - | 0 W/m² | - |
| 1777366802 | 6.11° C | 87% | 1014.8 hPa | 0 mm | - | 0 W/m² | - |
| 1777366763 | 11.11° C | 84% | 1003.6 hPa | 0 mm | - | 0 W/m² | - |
* Rain latest hour (hover to see other rain measurements)
** Current wind speed in m/s (hover to see current wind gust speed)